createdAt,value
2023-05-22T00:02:51.764Z,15.40
2023-05-22T00:07:53.279Z,17.00
2023-05-22T00:12:54.626Z,17.13
2023-05-22T00:17:56.091Z,18.53
2023-05-22T00:23:00.493Z,20.40
2023-05-22T00:28:01.775Z,21.10
2023-05-22T00:33:03.509Z,24.63
2023-05-22T00:38:05.649Z,23.83
2023-05-22T00:43:08.999Z,24.60
2023-05-22T00:48:11.790Z,24.40
2023-05-22T00:53:14.258Z,24.67
2023-05-22T00:58:18.788Z,25.33
2023-05-22T01:03:25.363Z,27.53
2023-05-22T01:08:26.843Z,28.13
2023-05-22T01:13:39.200Z,27.83
2023-05-22T01:18:55.007Z,27.77
2023-05-22T01:24:05.756Z,27.53
2023-05-22T01:29:13.695Z,27.57
2023-05-22T01:34:16.698Z,28.97
2023-05-22T01:39:18.803Z,30.40
2023-05-22T01:44:20.085Z,33.00
2023-05-22T01:49:21.549Z,31.37
2023-05-22T01:54:44.775Z,33.63
2023-05-22T01:59:55.564Z,32.53
2023-05-22T02:05:00.119Z,32.57
2023-05-22T02:10:02.690Z,31.33
2023-05-22T02:15:05.565Z,33.27
2023-05-22T02:20:14.595Z,33.37
2023-05-22T02:25:18.228Z,33.07
2023-05-22T02:30:20.724Z,32.77
2023-05-22T02:35:24.808Z,33.90
2023-05-22T02:40:26.853Z,34.00
2023-05-22T02:45:28.824Z,34.33
2023-05-22T02:50:30.232Z,34.00
2023-05-22T02:55:31.623Z,33.07
2023-05-22T03:00:33.037Z,35.90
2023-05-22T03:05:34.491Z,33.37
2023-05-22T03:10:36.108Z,35.77
2023-05-22T03:15:37.370Z,33.07
2023-05-22T03:20:46.924Z,34.20
2023-05-22T03:25:48.421Z,35.53
2023-05-22T03:30:49.947Z,35.70
2023-05-22T03:36:02.857Z,35.73
2023-05-22T03:41:04.052Z,36.47
2023-05-22T03:46:05.320Z,37.13
2023-05-22T03:51:06.919Z,33.90
2023-05-22T03:56:08.197Z,38.13
2023-05-22T04:01:10.573Z,38.77
2023-05-22T04:06:12.998Z,40.90
2023-05-22T04:11:15.219Z,40.20
2023-05-22T04:16:16.788Z,39.00
2023-05-22T04:21:18.912Z,38.13
2023-05-22T04:26:20.412Z,36.70
2023-05-22T04:31:22.434Z,36.13
2023-05-22T04:36:25.943Z,37.53
2023-05-22T04:41:28.121Z,37.40
2023-05-22T04:46:29.588Z,40.30
2023-05-22T04:51:32.351Z,36.97
2023-05-22T04:56:36.671Z,39.07
2023-05-22T05:01:39.432Z,38.90
2023-05-22T05:06:40.946Z,39.90
2023-05-22T05:11:42.421Z,40.27
2023-05-22T05:16:43.926Z,41.43
2023-05-22T05:21:45.220Z,43.00
2023-05-22T05:26:46.687Z,42.30
2023-05-22T05:43:11.362Z,40.03
2023-05-22T05:48:13.641Z,40.30
2023-05-22T05:53:18.460Z,43.60
2023-05-22T05:58:25.365Z,41.57
2023-05-22T06:32:19.703Z,43.33
2023-05-22T06:37:21.814Z,42.17
2023-05-22T06:42:23.677Z,41.73
2023-05-22T06:47:43.776Z,41.70
2023-05-22T06:52:45.654Z,41.80
2023-05-22T06:57:47.698Z,44.10
2023-05-22T07:02:49.891Z,44.70
2023-05-22T07:08:01.088Z,47.17
2023-05-22T07:13:03.254Z,49.47
2023-05-22T07:18:08.703Z,50.77
2023-05-22T07:23:10.184Z,54.20
2023-05-22T07:28:12.961Z,49.50
2023-05-22T07:33:30.220Z,50.37
2023-05-22T07:38:32.217Z,55.30
2023-05-22T07:43:36.808Z,63.35
2023-05-22T07:48:39.069Z,60.45
2023-05-22T07:53:41.459Z,65.07
2023-05-22T07:58:43.330Z,62.08
2023-05-22T08:03:44.938Z,63.45
2023-05-22T08:08:46.536Z,62.75
2023-05-22T08:13:48.237Z,59.88
2023-05-22T08:18:49.906Z,64.75
2023-05-22T08:23:51.327Z,57.70
2023-05-22T08:28:52.940Z,57.40
2023-05-22T08:34:01.506Z,62.38
2023-05-22T08:39:03.238Z,63.50
2023-05-22T08:44:04.603Z,59.92
2023-05-22T08:49:08.383Z,62.95
2023-05-22T08:54:10.157Z,58.00
2023-05-22T08:59:11.865Z,66.43
2023-05-22T09:04:13.910Z,66.80
2023-05-22T09:09:15.305Z,72.15
2023-05-22T09:14:17.985Z,72.25
2023-05-22T09:19:19.835Z,69.40
2023-05-22T09:24:21.399Z,75.40
2023-05-22T09:29:22.840Z,67.68
2023-05-22T09:34:28.358Z,60.95
2023-05-22T09:39:40.941Z,60.83
2023-05-22T09:44:53.769Z,65.45
2023-05-22T09:49:57.905Z,62.97
2023-05-22T09:55:06.189Z,56.22
2023-05-22T10:00:11.782Z,53.90
2023-05-22T10:05:20.741Z,51.78
2023-05-22T10:10:25.357Z,43.53
2023-05-22T10:15:26.885Z,53.95
2023-05-22T10:20:29.059Z,58.90
2023-05-22T10:25:30.502Z,56.28
2023-05-22T10:30:51.350Z,48.33
2023-05-22T10:36:50.702Z,48.17
2023-05-22T10:41:53.002Z,43.72
2023-05-22T10:46:54.418Z,41.88
2023-05-22T10:51:56.445Z,32.95
2023-05-22T10:57:13.775Z,34.65
2023-05-22T11:02:41.519Z,35.17
2023-05-22T11:07:42.988Z,31.08
2023-05-22T11:12:44.876Z,32.47
2023-05-22T11:17:52.232Z,38.47
2023-05-22T11:22:59.595Z,52.80
2023-05-22T11:28:05.576Z,55.40
2023-05-22T11:33:07.250Z,52.97
2023-05-22T11:38:09.029Z,51.35
2023-05-22T11:43:10.717Z,48.33
2023-05-22T11:48:14.677Z,48.38
2023-05-22T11:53:18.105Z,43.53
2023-05-22T11:58:27.519Z,46.75
2023-05-22T12:03:32.515Z,46.20
2023-05-22T12:08:34.271Z,46.97
2023-05-22T12:13:35.563Z,45.85
2023-05-22T12:18:36.915Z,46.88
2023-05-22T12:23:48.241Z,49.08
2023-05-22T12:28:57.388Z,48.42
2023-05-22T12:33:58.643Z,45.47
2023-05-22T12:39:00.231Z,37.50
2023-05-22T12:44:03.255Z,35.72
2023-05-22T12:49:04.441Z,35.38
2023-05-22T12:54:16.606Z,33.67
2023-05-22T13:11:12.400Z,33.45
2023-05-22T13:17:04.287Z,31.65
2023-05-22T13:28:14.397Z,30.25
2023-05-22T13:39:18.671Z,28.73
2023-05-22T13:44:44.428Z,29.58
2023-05-22T13:49:45.769Z,29.15
2023-05-22T13:55:19.402Z,29.15
2023-05-22T14:00:20.847Z,28.83
2023-05-22T14:05:23.417Z,27.58
2023-05-22T14:10:24.829Z,28.95
2023-05-22T14:15:26.239Z,27.63
2023-05-22T14:20:27.554Z,33.47
2023-05-22T14:25:28.734Z,31.35
2023-05-22T14:30:30.226Z,36.78
2023-05-22T14:35:32.211Z,37.03
2023-05-22T14:40:33.372Z,34.58
2023-05-22T14:45:34.649Z,37.10
2023-05-22T14:50:36.487Z,40.13
2023-05-22T14:55:38.155Z,40.80
2023-05-22T15:00:42.014Z,41.30
2023-05-22T15:05:43.561Z,40.47
2023-05-22T15:10:46.009Z,34.35
2023-05-22T15:15:47.408Z,30.67
2023-05-22T15:20:48.733Z,30.33
2023-05-22T15:25:52.090Z,29.35
2023-05-22T15:30:53.352Z,28.42
2023-05-22T15:35:54.717Z,28.77
2023-05-22T15:40:56.059Z,30.58
2023-05-22T15:45:57.632Z,27.00
2023-05-22T15:50:59.064Z,24.17
2023-05-22T15:56:00.277Z,30.73
2023-05-22T16:01:01.775Z,35.45
2023-05-22T16:06:03.320Z,38.53
2023-05-22T16:11:04.555Z,35.60
2023-05-22T16:16:06.262Z,28.58
2023-05-22T16:21:07.740Z,29.30
2023-05-22T16:26:09.194Z,30.80
2023-05-22T16:31:12.184Z,31.85
2023-05-22T16:36:13.688Z,29.42
2023-05-22T16:41:15.193Z,28.20
2023-05-22T16:46:16.885Z,25.30
2023-05-22T16:51:18.126Z,27.83
2023-05-22T16:56:20.165Z,26.27
2023-05-22T17:01:21.757Z,27.83
2023-05-22T17:06:23.539Z,24.27
2023-05-22T17:11:25.701Z,26.23
2023-05-22T17:16:27.201Z,25.15
2023-05-22T17:21:30.020Z,28.10
2023-05-22T17:26:32.889Z,25.63
2023-05-22T17:31:35.010Z,25.10
2023-05-22T17:36:37.674Z,25.63
2023-05-22T17:41:38.890Z,23.40
2023-05-22T17:46:40.532Z,25.42
2023-05-22T17:51:41.840Z,25.58
2023-05-22T17:56:43.040Z,26.67
2023-05-22T18:01:44.318Z,26.45
2023-05-22T18:06:45.722Z,25.02
2023-05-22T18:11:47.079Z,26.13
2023-05-22T18:16:48.578Z,25.85
2023-05-22T18:21:50.308Z,25.58
2023-05-22T18:26:51.515Z,26.65
2023-05-22T18:31:52.902Z,27.23
2023-05-22T18:36:54.552Z,26.50
2023-05-22T18:41:57.708Z,25.77
2023-05-22T18:46:59.194Z,23.00
2023-05-22T18:52:00.953Z,25.10
2023-05-22T18:57:02.234Z,25.25
2023-05-22T19:02:03.610Z,25.60
2023-05-22T19:07:04.828Z,27.08
2023-05-22T19:12:06.372Z,25.02
2023-05-22T19:17:07.949Z,28.25
2023-05-22T19:22:09.510Z,27.40
2023-05-22T19:27:10.767Z,26.17
2023-05-22T19:32:13.444Z,26.58
2023-05-22T19:37:14.798Z,27.35
2023-05-22T19:42:16.278Z,27.38
2023-05-22T19:47:17.830Z,26.67
2023-05-22T19:52:19.096Z,25.95
2023-05-22T19:57:20.570Z,24.40
2023-05-22T20:02:22.374Z,20.15
2023-05-22T20:07:23.724Z,18.20
2023-05-22T20:12:25.288Z,15.45
2023-05-22T20:17:26.598Z,14.65
2023-05-22T20:22:28.012Z,13.57
2023-05-22T20:27:29.484Z,14.15
2023-05-22T20:32:31.708Z,15.30
2023-05-22T20:37:34.262Z,15.90
2023-05-22T20:42:36.880Z,16.20
2023-05-22T20:47:39.629Z,17.55
2023-05-22T20:52:40.973Z,18.20
2023-05-22T20:57:42.323Z,18.17
2023-05-22T21:02:43.777Z,19.60
2023-05-22T21:07:45.011Z,20.37
2023-05-22T21:12:46.969Z,20.10
2023-05-22T21:17:48.777Z,21.50
2023-05-22T21:22:50.430Z,22.27
2023-05-22T21:27:53.667Z,19.77
2023-05-22T21:32:55.261Z,21.43
2023-05-22T21:37:56.887Z,20.70
2023-05-22T21:42:58.413Z,23.40
2023-05-22T21:47:59.964Z,21.43
2023-05-22T21:53:01.381Z,23.63
2023-05-22T21:58:03.004Z,27.30
2023-05-22T22:03:04.541Z,24.70
2023-05-22T22:08:06.050Z,26.80
2023-05-22T22:13:07.432Z,28.67
2023-05-22T22:18:09.001Z,23.83
2023-05-22T22:23:10.501Z,25.87
2023-05-22T22:28:11.964Z,27.60
2023-05-22T22:33:13.359Z,24.60
2023-05-22T22:38:14.730Z,23.50
2023-05-22T22:43:16.093Z,23.23
2023-05-22T22:48:21.654Z,23.87
2023-05-22T22:53:23.172Z,22.63
2023-05-22T22:58:25.266Z,22.23
2023-05-22T23:03:26.742Z,26.67
2023-05-22T23:08:28.170Z,32.17
2023-05-22T23:13:29.565Z,31.07
2023-05-22T23:18:30.902Z,30.17
2023-05-22T23:23:32.231Z,32.13
2023-05-22T23:28:33.497Z,34.43
2023-05-22T23:33:34.969Z,32.47
2023-05-22T23:38:36.408Z,36.60
2023-05-22T23:43:37.719Z,32.70
2023-05-22T23:48:40.940Z,35.50
2023-05-22T23:53:42.660Z,36.33
2023-05-22T23:58:44.239Z,33.67
